Time;durP1;ratioP1;P1;durP2;ratioP2;P2;SDS_P1;SDS_P2;PMS_P1;PMS_P2;Temp;Humidity;BMP_temperature;BMP_pressure;BME280_temperature;BME280_humidity;BME280_pressure;Samples;Min_cycle;Max_cycle;Signal;HPM_P1;HPM_P2
2023/07/17 00:02:17;;;;;;;13.05;2.70;;;;;;;;;;5084122;27;20035;-76
2023/07/17 00:04:43;;;;;;;18.40;3.00;;;;;;;;;;5081748;27;20043;-76
2023/07/17 00:07:09;;;;;;;13.30;2.33;;;;;;;;;;5100580;27;20173;-76
2023/07/17 00:09:35;;;;;;;11.65;2.95;;;;;;;;;;5103528;27;20167;-76
2023/07/17 00:12:03;;;;;;;15.43;2.60;;;;;;;;;;5082601;27;20036;-76
2023/07/17 00:14:29;;;;;;;10.48;3.38;;;;;;;;;;5066798;27;20321;-77
2023/07/17 00:16:55;;;;;;;9.73;2.85;;;;;;;;;;5101495;27;20101;-76
2023/07/17 00:19:21;;;;;;;11.80;2.95;;;;;;;;;;5102799;27;20039;-76
2023/07/17 00:21:47;;;;;;;11.95;3.50;;;;;;;;;;5080963;27;20043;-76
2023/07/17 00:24:13;;;;;;;12.68;3.33;;;;;;;;;;5079827;27;20102;-76
2023/07/17 00:26:40;;;;;;;16.55;3.60;;;;;;;;;;5096821;27;20129;-76
2023/07/17 00:29:19;;;;;;;12.13;2.85;;;;;;;;;;5102097;27;20047;-77
2023/07/17 00:31:45;;;;;;;18.25;3.58;;;;;;;;;;5078301;27;20054;-76
2023/07/17 00:34:12;;;;;;;13.63;3.40;;;;;;;;;;5083041;27;20051;-76
2023/07/17 00:36:38;;;;;;;12.40;3.20;;;;;;;;;;5101069;27;20043;-76
2023/07/17 00:39:04;;;;;;;15.45;3.08;;;;;;;;;;5100829;27;20130;-76
2023/07/17 00:41:30;;;;;;;12.73;2.95;;;;;;;;;;5082555;27;20116;-76
2023/07/17 00:43:56;;;;;;;14.93;3.60;;;;;;;;;;5070838;27;20051;-76
2023/07/17 00:46:23;;;;;;;9.95;3.00;;;;;;;;;;5080709;27;20051;-74
2023/07/17 00:48:49;;;;;;;15.40;3.83;;;;;;;;;;5102341;27;20968;-74
2023/07/17 00:51:16;;;;;;;12.82;3.58;;;;;;;;;;5102583;27;21091;-74
2023/07/17 00:53:43;;;;;;;14.93;2.80;;;;;;;;;;5082743;27;21009;-75
2023/07/17 00:56:09;;;;;;;10.00;3.10;;;;;;;;;;5099466;27;20054;-75
2023/07/17 00:58:36;;;;;;;17.15;3.53;;;;;;;;;;5083131;27;20054;-76
2023/07/17 01:01:03;;;;;;;9.57;2.85;;;;;;;;;;5065810;27;20047;-76
2023/07/17 01:03:30;;;;;;;15.95;3.20;;;;;;;;;;5102625;27;20046;-76
2023/07/17 01:05:59;;;;;;;16.50;3.28;;;;;;;;;;5098497;27;20043;-76
2023/07/17 01:08:25;;;;;;;15.35;3.97;;;;;;;;;;5097964;27;20115;-76
2023/07/17 01:10:52;;;;;;;20.38;3.10;;;;;;;;;;5099043;27;20101;-76
2023/07/17 01:13:18;;;;;;;17.33;3.65;;;;;;;;;;5080418;28;20204;-76
2023/07/17 01:15:44;;;;;;;8.85;3.53;;;;;;;;;;5100541;27;20054;-76
2023/07/17 01:18:10;;;;;;;10.60;3.30;;;;;;;;;;5081251;27;20612;-76
2023/07/17 01:20:36;;;;;;;12.32;2.92;;;;;;;;;;5099774;27;20071;-75
2023/07/17 01:23:03;;;;;;;14.80;4.35;;;;;;;;;;5102075;27;20395;-76
2023/07/17 01:25:29;;;;;;;10.10;3.13;;;;;;;;;;5100255;27;20039;-76
2023/07/17 01:27:56;;;;;;;7.50;2.42;;;;;;;;;;5101520;27;20043;-76
2023/07/17 01:30:22;;;;;;;14.32;2.97;;;;;;;;;;5103069;27;20046;-76
2023/07/17 01:32:48;;;;;;;8.20;2.22;;;;;;;;;;5065875;27;20050;-76
2023/07/17 01:35:14;;;;;;;3.90;1.98;;;;;;;;;;5099361;27;20043;-76
2023/07/17 01:37:42;;;;;;;7.30;2.33;;;;;;;;;;5101379;27;21225;-76
2023/07/17 01:40:09;;;;;;;7.68;2.10;;;;;;;;;;5083237;28;20047;-76
2023/07/17 01:42:35;;;;;;;5.47;1.90;;;;;;;;;;5083987;27;20039;-76
2023/07/17 01:45:03;;;;;;;8.15;1.85;;;;;;;;;;5098950;27;20038;-76
2023/07/17 01:47:29;;;;;;;4.88;1.90;;;;;;;;;;5105508;27;20059;-76
2023/07/17 01:49:55;;;;;;;8.05;2.38;;;;;;;;;;5087769;27;20055;-76
2023/07/17 01:52:21;;;;;;;4.90;1.77;;;;;;;;;;5086924;27;20058;-76
2023/07/17 01:54:48;;;;;;;3.28;1.70;;;;;;;;;;5104062;27;20042;-76
2023/07/17 01:57:14;;;;;;;3.63;1.77;;;;;;;;;;5105260;27;20085;-76
2023/07/17 01:59:40;;;;;;;5.55;2.08;;;;;;;;;;5085188;27;20536;-76
2023/07/17 02:02:06;;;;;;;5.00;1.70;;;;;;;;;;5061744;27;20039;-76
2023/07/17 02:04:32;;;;;;;5.15;1.83;;;;;;;;;;5099976;27;20039;-76
2023/07/17 02:06:58;;;;;;;3.63;2.10;;;;;;;;;;5080713;27;20044;-76
2023/07/17 02:09:24;;;;;;;5.07;2.30;;;;;;;;;;5086261;27;20062;-76
2023/07/17 02:11:50;;;;;;;7.13;2.47;;;;;;;;;;5107718;27;20122;-76
2023/07/17 02:14:17;;;;;;;10.40;2.65;;;;;;;;;;5089125;27;20164;-77
2023/07/17 02:16:43;;;;;;;7.70;2.78;;;;;;;;;;5089662;27;20057;-76
2023/07/17 02:19:09;;;;;;;6.25;2.35;;;;;;;;;;5105288;27;20039;-76
2023/07/17 02:21:35;;;;;;;8.27;2.45;;;;;;;;;;5105635;27;20490;-76
2023/07/17 02:24:01;;;;;;;8.27;2.60;;;;;;;;;;5104738;27;20100;-76
2023/07/17 02:26:27;;;;;;;5.00;2.58;;;;;;;;;;5105619;27;20054;-76
2023/07/17 02:28:53;;;;;;;7.18;3.03;;;;;;;;;;5103256;27;20169;-76
2023/07/17 02:31:21;;;;;;;9.80;2.80;;;;;;;;;;5073697;27;20050;-76
2023/07/17 02:33:47;;;;;;;9.13;3.75;;;;;;;;;;5107182;27;20044;-76
2023/07/17 02:36:13;;;;;;;9.57;2.92;;;;;;;;;;5105557;27;20049;-76
2023/07/17 02:38:39;;;;;;;9.80;2.97;;;;;;;;;;5104201;27;20043;-75
2023/07/17 02:41:05;;;;;;;11.13;3.47;;;;;;;;;;5104627;27;20031;-76
2023/07/17 02:43:31;;;;;;;13.38;3.30;;;;;;;;;;5102789;27;20050;-76
2023/07/17 02:45:57;;;;;;;10.00;3.63;;;;;;;;;;5107527;27;20475;-76
2023/07/17 02:48:23;;;;;;;11.63;3.22;;;;;;;;;;5087929;27;20051;-76
2023/07/17 02:50:53;;;;;;;12.60;3.58;;;;;;;;;;5106829;27;20047;-76
2023/07/17 02:53:19;;;;;;;11.70;3.53;;;;;;;;;;5088827;27;20047;-76
2023/07/17 02:55:45;;;;;;;12.75;3.60;;;;;;;;;;5103452;27;21634;-76
2023/07/17 02:58:11;;;;;;;10.70;3.20;;;;;;;;;;5068533;27;20039;-76
2023/07/17 03:00:37;;;;;;;9.93;3.90;;;;;;;;;;5083775;27;20069;-76
2023/07/17 03:03:08;;;;;;;8.20;3.10;;;;;;;;;;5086348;27;20047;-76
2023/07/17 03:05:35;;;;;;;9.73;3.28;;;;;;;;;;5081843;27;20046;-76
2023/07/17 03:08:01;;;;;;;12.25;3.33;;;;;;;;;;5084596;27;20041;-76
2023/07/17 03:10:28;;;;;;;9.88;3.08;;;;;;;;;;5102957;27;20384;-76
2023/07/17 03:12:54;;;;;;;12.70;3.75;;;;;;;;;;5087962;27;20089;-76
2023/07/17 03:15:20;;;;;;;10.80;3.40;;;;;;;;;;5102643;27;20096;-75
2023/07/17 03:17:46;;;;;;;8.23;3.25;;;;;;;;;;5104686;27;20410;-76
2023/07/17 03:20:13;;;;;;;9.55;3.60;;;;;;;;;;5086296;27;20153;-76
2023/07/17 03:22:39;;;;;;;10.23;3.67;;;;;;;;;;5109155;27;20039;-76
2023/07/17 03:25:05;;;;;;;11.43;3.20;;;;;;;;;;5089857;27;20328;-76
2023/07/17 03:27:32;;;;;;;12.05;3.20;;;;;;;;;;5105173;27;20043;-76
2023/07/17 03:29:58;;;;;;;8.73;3.13;;;;;;;;;;5106713;27;20026;-76
2023/07/17 03:32:24;;;;;;;14.38;4.05;;;;;;;;;;5087734;27;20028;-76
2023/07/17 03:34:50;;;;;;;9.00;3.65;;;;;;;;;;5107852;27;20035;-76
2023/07/17 03:37:16;;;;;;;9.55;3.22;;;;;;;;;;5104322;27;20047;-76
2023/07/17 03:39:42;;;;;;;10.57;3.20;;;;;;;;;;5088150;27;20035;-76
2023/07/17 03:42:11;;;;;;;9.13;3.42;;;;;;;;;;5090811;27;20513;-76
2023/07/17 03:44:38;;;;;;;9.70;3.50;;;;;;;;;;5087543;27;20047;-76
2023/07/17 03:47:04;;;;;;;14.95;4.38;;;;;;;;;;5086829;27;20057;-76
2023/07/17 03:49:30;;;;;;;10.70;3.38;;;;;;;;;;5107539;27;20563;-76
2023/07/17 03:51:58;;;;;;;6.38;2.80;;;;;;;;;;5102375;27;20047;-76
2023/07/17 03:54:24;;;;;;;10.15;3.47;;;;;;;;;;5064142;27;20043;-76
2023/07/17 03:56:50;;;;;;;8.20;3.88;;;;;;;;;;5082359;27;21481;-76
2023/07/17 03:59:16;;;;;;;9.65;3.45;;;;;;;;;;5085659;27;20036;-76
2023/07/17 04:01:42;;;;;;;7.97;3.33;;;;;;;;;;5100373;27;20039;-76
2023/07/17 04:04:08;;;;;;;9.27;3.38;;;;;;;;;;5100226;27;21683;-76
2023/07/17 04:06:34;;;;;;;15.15;3.25;;;;;;;;;;5097522;27;20433;-77
2023/07/17 04:09:00;;;;;;;8.35;3.10;;;;;;;;;;5102772;27;20038;-77
2023/07/17 04:11:26;;;;;;;9.52;3.20;;;;;;;;;;5103183;27;20509;-77
2023/07/17 04:13:52;;;;;;;10.45;3.25;;;;;;;;;;5083918;27;20038;-77
2023/07/17 04:16:21;;;;;;;10.02;3.20;;;;;;;;;;5095375;27;20067;-77
2023/07/17 04:18:47;;;;;;;7.07;2.80;;;;;;;;;;5103221;27;20170;-77
2023/07/17 04:21:13;;;;;;;11.10;3.33;;;;;;;;;;5099916;27;20043;-77
2023/07/17 04:23:39;;;;;;;12.30;3.13;;;;;;;;;;5098847;27;20042;-77
2023/07/17 04:26:05;;;;;;;13.02;3.78;;;;;;;;;;5098531;27;21832;-77
2023/07/17 04:28:31;;;;;;;9.63;2.85;;;;;;;;;;5100210;27;20487;-76
2023/07/17 04:30:58;;;;;;;12.40;3.13;;;;;;;;;;5099968;27;20127;-76
2023/07/17 04:33:24;;;;;;;6.47;2.70;;;;;;;;;;5075616;27;20049;-77
2023/07/17 04:35:50;;;;;;;10.05;3.05;;;;;;;;;;5095586;27;20039;-77
2023/07/17 04:38:16;;;;;;;8.52;2.80;;;;;;;;;;5097856;27;20058;-76
2023/07/17 04:40:42;;;;;;;9.27;2.70;;;;;;;;;;5095262;27;20303;-76
2023/07/17 04:43:08;;;;;;;13.10;3.72;;;;;;;;;;5097373;27;21639;-76
2023/07/17 04:45:34;;;;;;;9.52;3.22;;;;;;;;;;5075425;27;20444;-77
2023/07/17 04:48:02;;;;;;;7.68;3.00;;;;;;;;;;5098631;27;20047;-76
2023/07/17 04:50:28;;;;;;;10.88;2.88;;;;;;;;;;5072962;27;20047;-77
2023/07/17 04:52:54;;;;;;;11.77;3.08;;;;;;;;;;5077967;27;20798;-78
2023/07/17 04:55:21;;;;;;;9.80;3.00;;;;;;;;;;5099653;27;20163;-78
2023/07/17 04:57:47;;;;;;;14.73;3.38;;;;;;;;;;5099931;27;20051;-77
2023/07/17 05:00:14;;;;;;;10.30;3.20;;;;;;;;;;5082365;27;20042;-77
2023/07/17 05:02:40;;;;;;;12.18;2.92;;;;;;;;;;5099390;27;22111;-77
2023/07/17 05:05:07;;;;;;;9.32;3.20;;;;;;;;;;5102052;27;20039;-77
2023/07/17 05:07:33;;;;;;;12.50;3.85;;;;;;;;;;5103893;27;21064;-77
2023/07/17 05:09:59;;;;;;;11.65;3.28;;;;;;;;;;5100640;27;20046;-77
2023/07/17 05:12:28;;;;;;;12.63;3.55;;;;;;;;;;5074899;27;20126;-76
2023/07/17 05:14:55;;;;;;;12.23;3.08;;;;;;;;;;5099351;27;20517;-77
2023/07/17 05:17:21;;;;;;;18.67;3.47;;;;;;;;;;5058590;27;20052;-77
2023/07/17 05:19:47;;;;;;;15.02;3.30;;;;;;;;;;5100687;27;20201;-77
2023/07/17 05:22:13;;;;;;;13.18;4.47;;;;;;;;;;5103431;27;20659;-77
2023/07/17 05:24:39;;;;;;;13.93;3.38;;;;;;;;;;5103128;27;20046;-76
2023/07/17 05:27:05;;;;;;;9.13;3.08;;;;;;;;;;5102019;27;20042;-76
2023/07/17 05:29:31;;;;;;;10.10;2.97;;;;;;;;;;5067237;27;20054;-76
2023/07/17 05:31:57;;;;;;;8.65;2.67;;;;;;;;;;5087078;27;20042;-77
2023/07/17 05:34:23;;;;;;;11.73;3.40;;;;;;;;;;5083525;27;20047;-77
2023/07/17 05:36:49;;;;;;;13.05;3.33;;;;;;;;;;5101034;27;20062;-76
2023/07/17 05:39:16;;;;;;;10.65;2.83;;;;;;;;;;5088214;27;20482;-77
2023/07/17 05:41:42;;;;;;;9.88;3.28;;;;;;;;;;5101817;27;20043;-75
2023/07/17 05:44:08;;;;;;;10.77;3.40;;;;;;;;;;5101769;27;20050;-74
2023/07/17 05:46:34;;;;;;;8.13;3.28;;;;;;;;;;5079760;27;20059;-74
2023/07/17 05:49:00;;;;;;;13.88;2.83;;;;;;;;;;5098166;27;20116;-74
2023/07/17 05:51:26;;;;;;;9.65;3.38;;;;;;;;;;5094471;27;20047;-74
2023/07/17 05:53:52;;;;;;;12.20;3.30;;;;;;;;;;5079495;27;20039;-74
2023/07/17 05:56:18;;;;;;;10.85;3.60;;;;;;;;;;5074313;28;20043;-75
2023/07/17 05:58:44;;;;;;;17.13;3.95;;;;;;;;;;5083461;28;20046;-74
2023/07/17 06:01:11;;;;;;;9.52;2.70;;;;;;;;;;5096536;27;20155;-74
2023/07/17 06:03:37;;;;;;;12.65;3.40;;;;;;;;;;5096451;27;20683;-75
2023/07/17 06:06:03;;;;;;;14.90;3.70;;;;;;;;;;5079304;27;20051;-75
2023/07/17 06:08:29;;;;;;;10.18;3.95;;;;;;;;;;5097767;27;20039;-75
2023/07/17 06:10:55;;;;;;;14.15;3.75;;;;;;;;;;5062778;27;20058;-75
2023/07/17 06:13:21;;;;;;;15.70;3.38;;;;;;;;;;5099383;27;22234;-75
2023/07/17 06:15:47;;;;;;;8.55;3.17;;;;;;;;;;5098062;27;20096;-75
2023/07/17 06:18:13;;;;;;;12.23;3.30;;;;;;;;;;5095701;27;20390;-75
2023/07/17 06:20:40;;;;;;;12.95;3.97;;;;;;;;;;5098907;27;20443;-76
2023/07/17 06:23:06;;;;;;;10.70;3.30;;;;;;;;;;5097514;27;20124;-76
2023/07/17 06:25:34;;;;;;;14.93;3.88;;;;;;;;;;5100595;27;20471;-76
2023/07/17 06:28:00;;;;;;;12.15;3.67;;;;;;;;;;5100327;27;20049;-75
2023/07/17 06:30:26;;;;;;;7.63;3.45;;;;;;;;;;5101103;27;20103;-75
2023/07/17 06:32:52;;;;;;;13.23;4.43;;;;;;;;;;5083718;27;20135;-76
2023/07/17 06:35:18;;;;;;;13.27;3.95;;;;;;;;;;5080409;27;20098;-75
2023/07/17 06:37:45;;;;;;;11.98;3.97;;;;;;;;;;5068377;27;20072;-75
2023/07/17 06:40:11;;;;;;;15.15;4.13;;;;;;;;;;5102863;27;20039;-76
2023/07/17 06:42:37;;;;;;;17.42;4.60;;;;;;;;;;5102655;27;20048;-76
2023/07/17 06:45:03;;;;;;;12.00;4.22;;;;;;;;;;5100613;27;20039;-75
2023/07/17 06:47:30;;;;;;;11.10;4.15;;;;;;;;;;5101444;27;20050;-75
2023/07/17 06:49:56;;;;;;;12.63;3.80;;;;;;;;;;5100237;27;20446;-76
2023/07/17 06:52:22;;;;;;;12.10;4.10;;;;;;;;;;5099226;27;20079;-75
2023/07/17 06:54:48;;;;;;;12.50;4.18;;;;;;;;;;5099971;27;20770;-75
2023/07/17 06:57:14;;;;;;;17.38;4.63;;;;;;;;;;5099787;27;20043;-75
2023/07/17 06:59:40;;;;;;;18.52;5.25;;;;;;;;;;5101126;27;20035;-75
2023/07/17 07:02:07;;;;;;;12.73;3.80;;;;;;;;;;5102520;27;20593;-75
2023/07/17 07:04:33;;;;;;;13.55;5.25;;;;;;;;;;5105128;27;20150;-75
2023/07/17 07:06:59;;;;;;;17.88;5.35;;;;;;;;;;5086353;27;20438;-75
2023/07/17 07:09:25;;;;;;;13.57;4.82;;;;;;;;;;5101699;27;20070;-75
2023/07/17 07:11:51;;;;;;;12.35;4.80;;;;;;;;;;5104624;27;20540;-74
2023/07/17 07:14:17;;;;;;;10.85;3.80;;;;;;;;;;5084007;27;20109;-75
2023/07/17 07:16:43;;;;;;;11.32;4.70;;;;;;;;;;5103770;27;20075;-74
2023/07/17 07:19:09;;;;;;;16.50;5.45;;;;;;;;;;5084403;27;22053;-74
2023/07/17 07:21:35;;;;;;;11.93;4.97;;;;;;;;;;5102689;27;20043;-74
2023/07/17 07:24:03;;;;;;;13.10;4.85;;;;;;;;;;5103896;27;20037;-74
2023/07/17 07:26:31;;;;;;;13.15;5.22;;;;;;;;;;5084708;27;20558;-76
2023/07/17 07:28:57;;;;;;;21.80;5.60;;;;;;;;;;5069113;27;20053;-76
2023/07/17 07:31:23;;;;;;;12.35;4.35;;;;;;;;;;5083995;27;20047;-77
2023/07/17 07:33:49;;;;;;;26.48;5.00;;;;;;;;;;5066321;27;20494;-76
2023/07/17 07:36:16;;;;;;;26.35;5.25;;;;;;;;;;5080063;27;20047;-75
2023/07/17 07:38:42;;;;;;;25.85;4.57;;;;;;;;;;5084998;27;20043;-77
2023/07/17 07:41:08;;;;;;;14.00;4.13;;;;;;;;;;5084010;27;20042;-75
2023/07/17 07:43:34;;;;;;;9.80;3.50;;;;;;;;;;5084034;27;20043;-75
2023/07/17 07:46:00;;;;;;;13.82;4.10;;;;;;;;;;5103771;27;20441;-74
2023/07/17 07:48:27;;;;;;;13.63;4.18;;;;;;;;;;5101600;27;20573;-75
2023/07/17 07:50:53;;;;;;;11.55;3.92;;;;;;;;;;5087340;27;20055;-75
2023/07/17 07:53:19;;;;;;;12.32;4.15;;;;;;;;;;5082964;27;20391;-75
2023/07/17 07:55:45;;;;;;;23.25;5.03;;;;;;;;;;5070714;27;20042;-75
2023/07/17 07:58:11;;;;;;;18.40;5.32;;;;;;;;;;5071696;27;20040;-75
2023/07/17 08:00:37;;;;;;;22.35;7.32;;;;;;;;;;5099087;27;20131;-76
2023/07/17 08:03:03;;;;;;;20.02;6.05;;;;;;;;;;5097619;27;20066;-75
2023/07/17 08:05:29;;;;;;;22.05;6.90;;;;;;;;;;5082556;27;20053;-76
2023/07/17 08:07:55;;;;;;;17.27;7.20;;;;;;;;;;5101891;27;20047;-75
2023/07/17 08:10:22;;;;;;;24.52;7.47;;;;;;;;;;5084233;27;20184;-75
2023/07/17 08:12:48;;;;;;;24.30;7.35;;;;;;;;;;5101710;27;20095;-75
2023/07/17 08:15:14;;;;;;;20.45;7.70;;;;;;;;;;5100818;27;20801;-76
2023/07/17 08:17:40;;;;;;;23.08;7.07;;;;;;;;;;5068727;27;20463;-77
2023/07/17 08:20:06;;;;;;;21.33;6.95;;;;;;;;;;5106695;27;20040;-77
2023/07/17 08:22:33;;;;;;;22.02;6.65;;;;;;;;;;5101808;27;20043;-77
2023/07/17 08:24:59;;;;;;;21.13;6.88;;;;;;;;;;5077207;27;20047;-77
2023/07/17 08:27:25;;;;;;;20.58;6.90;;;;;;;;;;5097699;27;20050;-78
2023/07/17 08:29:51;;;;;;;26.20;7.50;;;;;;;;;;5100234;27;20527;-78
2023/07/17 08:32:17;;;;;;;17.13;5.95;;;;;;;;;;5058289;27;20043;-78
2023/07/17 08:34:44;;;;;;;17.55;6.10;;;;;;;;;;5096923;27;20123;-78
2023/07/17 08:37:10;;;;;;;20.25;6.60;;;;;;;;;;5097450;27;20372;-78
2023/07/17 08:39:36;;;;;;;13.68;5.10;;;;;;;;;;5098877;27;20046;-78
2023/07/17 08:42:02;;;;;;;16.67;5.95;;;;;;;;;;5079177;27;20031;-78
2023/07/17 08:44:29;;;;;;;13.50;5.15;;;;;;;;;;5098335;27;20720;-79
2023/07/17 08:46:55;;;;;;;12.20;4.60;;;;;;;;;;5077968;27;20206;-78
2023/07/17 08:49:22;;;;;;;12.90;4.70;;;;;;;;;;5098287;27;20039;-79
2023/07/17 08:51:49;;;;;;;15.60;4.55;;;;;;;;;;5098955;27;20051;-78
2023/07/17 08:54:16;;;;;;;15.10;4.60;;;;;;;;;;5097481;27;20046;-79
2023/07/17 08:56:42;;;;;;;13.07;4.13;;;;;;;;;;5062979;27;20061;-79
2023/07/17 08:59:10;;;;;;;9.43;3.60;;;;;;;;;;5100432;27;20085;-79
2023/07/17 09:01:36;;;;;;;12.07;3.60;;;;;;;;;;5098518;27;20517;-79
2023/07/17 09:04:04;;;;;;;9.95;3.75;;;;;;;;;;5097212;27;22010;-79
2023/07/17 09:06:30;;;;;;;9.20;3.25;;;;;;;;;;5099264;27;20202;-79
2023/07/17 09:08:56;;;;;;;9.07;2.90;;;;;;;;;;5079506;27;20045;-79
2023/07/17 09:11:22;;;;;;;10.77;3.15;;;;;;;;;;5079737;28;20043;-79
2023/07/17 09:13:49;;;;;;;6.22;2.65;;;;;;;;;;5057628;27;20035;-79
2023/07/17 09:16:20;;;;;;;9.68;3.03;;;;;;;;;;5078744;27;20058;-78
2023/07/17 09:18:47;;;;;;;8.30;3.38;;;;;;;;;;5081196;27;20153;-79
2023/07/17 09:21:14;;;;;;;14.05;3.30;;;;;;;;;;5098611;27;20027;-79
2023/07/17 09:23:41;;;;;;;6.43;2.50;;;;;;;;;;5095836;27;20066;-78
2023/07/17 09:26:07;;;;;;;13.32;3.15;;;;;;;;;;5067350;27;20055;-79
2023/07/17 09:28:39;;;;;;;9.90;2.70;;;;;;;;;;5079461;27;20058;-79
2023/07/17 09:31:05;;;;;;;9.90;2.95;;;;;;;;;;5073048;27;20058;-78
2023/07/17 09:33:37;;;;;;;14.88;3.85;;;;;;;;;;5101780;27;20047;-79
2023/07/17 09:36:03;;;;;;;6.85;3.22;;;;;;;;;;5078295;28;20051;-79
2023/07/17 09:38:30;;;;;;;8.15;2.90;;;;;;;;;;5097744;27;20039;-80
2023/07/17 09:40:57;;;;;;;7.00;2.75;;;;;;;;;;5081540;28;20050;-78
2023/07/17 09:43:30;;;;;;;7.57;3.10;;;;;;;;;;5097343;27;20042;-78
2023/07/17 09:46:00;;;;;;;12.57;3.58;;;;;;;;;;5095511;27;20111;-79
2023/07/17 09:48:30;;;;;;;13.52;3.58;;;;;;;;;;5080006;28;20050;-80
2023/07/17 09:50:57;;;;;;;8.45;2.85;;;;;;;;;;5099320;27;20093;-80
2023/07/17 09:53:25;;;;;;;6.05;2.97;;;;;;;;;;5078703;28;20047;-80
2023/07/17 09:55:52;;;;;;;10.90;3.70;;;;;;;;;;5081696;27;20043;-80
2023/07/17 09:58:19;;;;;;;14.48;3.33;;;;;;;;;;5094087;27;20039;-81
2023/07/17 10:00:47;;;;;;;7.30;2.88;;;;;;;;;;5097350;27;21156;-80
2023/07/17 10:03:20;;;;;;;6.25;2.42;;;;;;;;;;5099699;27;20035;-80
2023/07/17 10:05:46;;;;;;;6.72;1.70;;;;;;;;;;5078487;27;20368;-80
2023/07/17 10:08:14;;;;;;;7.07;2.10;;;;;;;;;;5068703;27;20047;-80
2023/07/17 10:10:41;;;;;;;4.63;2.00;;;;;;;;;;5096445;27;20045;-80
2023/07/17 10:13:08;;;;;;;4.97;1.90;;;;;;;;;;5084602;27;20544;-80
2023/07/17 10:15:34;;;;;;;4.90;2.03;;;;;;;;;;5101150;27;21224;-80
2023/07/17 10:18:00;;;;;;;5.72;1.67;;;;;;;;;;5084860;27;20047;-80
2023/07/17 10:20:30;;;;;;;4.60;2.00;;;;;;;;;;5101952;27;20099;-79
2023/07/17 10:22:56;;;;;;;4.30;2.10;;;;;;;;;;5086566;27;20042;-80
2023/07/17 10:25:23;;;;;;;8.05;2.42;;;;;;;;;;5069576;27;20046;-80
2023/07/17 10:27:52;;;;;;;3.67;1.70;;;;;;;;;;5082674;27;20050;-80
2023/07/17 10:30:24;;;;;;;7.13;2.22;;;;;;;;;;5085697;27;20054;-78
2023/07/17 10:33:10;;;;;;;11.60;1.90;;;;;;;;;;5082967;27;20039;-80
2023/07/17 10:35:56;;;;;;;5.47;1.60;;;;;;;;;;5064951;27;20054;-79
2023/07/17 10:38:25;;;;;;;4.68;2.10;;;;;;;;;;5102541;27;20042;-80
2023/07/17 10:41:01;;;;;;;7.32;2.00;;;;;;;;;;5086873;27;20608;-80
2023/07/17 10:43:27;;;;;;;6.18;1.95;;;;;;;;;;5085600;27;20035;-81
2023/07/17 10:45:53;;;;;;;2.83;1.23;;;;;;;;;;5088780;27;20130;-80
2023/07/17 10:48:19;;;;;;;5.88;1.58;;;;;;;;;;5073830;27;20107;-80
2023/07/17 10:50:52;;;;;;;11.18;2.10;;;;;;;;;;5109049;27;20130;-80
2023/07/17 10:53:19;;;;;;;5.57;1.75;;;;;;;;;;5067980;27;20534;-80
2023/07/17 10:55:46;;;;;;;4.45;1.80;;;;;;;;;;5086687;27;20047;-80
2023/07/17 10:58:12;;;;;;;5.38;1.92;;;;;;;;;;5105415;27;20046;-76
2023/07/17 11:00:44;;;;;;;4.95;1.80;;;;;;;;;;5083983;27;20047;-80
2023/07/17 11:03:11;;;;;;;4.97;1.60;;;;;;;;;;5086397;27;20165;-80
2023/07/17 11:05:40;;;;;;;3.40;1.48;;;;;;;;;;5083027;27;20477;-79
2023/07/17 11:08:07;;;;;;;7.18;2.05;;;;;;;;;;5067442;27;20130;-80
2023/07/17 11:10:34;;;;;;;4.25;1.90;;;;;;;;;;5065836;27;20051;-80
2023/07/17 11:13:02;;;;;;;6.95;2.22;;;;;;;;;;5080487;27;20039;-80
2023/07/17 11:15:30;;;;;;;7.82;1.80;;;;;;;;;;5106057;27;20074;-80
2023/07/17 11:17:56;;;;;;;7.20;1.85;;;;;;;;;;5082972;28;20096;-80
2023/07/17 11:20:22;;;;;;;5.25;2.50;;;;;;;;;;5071058;27;20066;-80
2023/07/17 11:22:48;;;;;;;5.13;1.75;;;;;;;;;;5050862;27;20487;-79
2023/07/17 11:25:14;;;;;;;8.20;2.53;;;;;;;;;;5083454;27;20081;-80
2023/07/17 11:27:40;;;;;;;6.47;2.25;;;;;;;;;;5065271;27;20243;-80
2023/07/17 11:30:17;;;;;;;5.03;2.13;;;;;;;;;;5082379;27;20051;-79
2023/07/17 11:32:43;;;;;;;5.50;2.22;;;;;;;;;;5078887;27;22436;-79
2023/07/17 11:35:09;;;;;;;5.72;2.10;;;;;;;;;;5103186;27;20043;-79
2023/07/17 11:37:38;;;;;;;4.97;1.80;;;;;;;;;;5091952;27;20069;-80
2023/07/17 11:40:05;;;;;;;5.50;2.03;;;;;;;;;;5085277;27;20051;-79
2023/07/17 11:42:52;;;;;;;5.70;2.00;;;;;;;;;;5106405;27;20490;-79
2023/07/17 11:45:21;;;;;;;7.18;2.10;;;;;;;;;;5088373;27;20091;-75
2023/07/17 11:47:47;;;;;;;8.45;2.15;;;;;;;;;;5083977;27;20074;-76
2023/07/17 11:50:13;;;;;;;6.13;2.10;;;;;;;;;;5087460;27;20071;-77
2023/07/17 11:52:39;;;;;;;5.15;2.10;;;;;;;;;;5084220;27;20065;-76
2023/07/17 11:55:05;;;;;;;7.55;2.15;;;;;;;;;;5104576;27;20050;-76
2023/07/17 11:57:31;;;;;;;6.88;2.00;;;;;;;;;;5087430;27;20039;-75
2023/07/17 12:00:04;;;;;;;5.13;2.65;;;;;;;;;;5105771;27;20112;-76
2023/07/17 12:02:30;;;;;;;5.53;1.98;;;;;;;;;;5088544;27;20070;-76
2023/07/17 12:05:01;;;;;;;5.35;2.08;;;;;;;;;;5067828;27;20092;-76
2023/07/17 12:07:27;;;;;;;5.78;2.20;;;;;;;;;;5106155;27;20079;-80
2023/07/17 12:09:53;;;;;;;5.70;2.17;;;;;;;;;;5103303;27;20155;-79
2023/07/17 12:12:19;;;;;;;4.15;2.03;;;;;;;;;;5089127;27;20051;-79
2023/07/17 12:14:46;;;;;;;7.20;2.05;;;;;;;;;;5087000;27;20050;-79
2023/07/17 12:17:12;;;;;;;3.78;2.20;;;;;;;;;;5068210;27;20043;-79
2023/07/17 12:19:38;;;;;;;5.57;2.30;;;;;;;;;;5088851;27;20043;-80
2023/07/17 12:22:04;;;;;;;6.05;2.35;;;;;;;;;;5088545;27;20039;-79
2023/07/17 12:24:30;;;;;;;6.40;2.45;;;;;;;;;;5086611;27;20043;-79
2023/07/17 12:26:56;;;;;;;5.20;2.20;;;;;;;;;;5089146;27;21692;-80
2023/07/17 12:29:23;;;;;;;4.50;2.13;;;;;;;;;;5087503;27;20445;-79
2023/07/17 12:31:49;;;;;;;5.93;1.88;;;;;;;;;;5088215;27;20127;-79
2023/07/17 12:34:15;;;;;;;4.43;1.80;;;;;;;;;;5089710;27;20046;-80
2023/07/17 12:36:41;;;;;;;22.02;2.90;;;;;;;;;;5090197;27;20074;-80
2023/07/17 12:39:12;;;;;;;16.02;3.20;;;;;;;;;;5071808;27;20047;-78
2023/07/17 12:41:38;;;;;;;7.57;3.33;;;;;;;;;;5107822;27;20431;-78
2023/07/17 12:44:04;;;;;;;9.05;2.60;;;;;;;;;;5088635;27;20046;-78
2023/07/17 12:46:30;;;;;;;6.72;2.30;;;;;;;;;;5108389;27;20074;-76
2023/07/17 12:48:56;;;;;;;4.32;2.45;;;;;;;;;;5090388;27;20158;-76
2023/07/17 12:51:22;;;;;;;5.47;2.25;;;;;;;;;;5109483;27;20051;-77
2023/07/17 12:53:48;;;;;;;4.93;2.22;;;;;;;;;;5107747;27;20047;-77
2023/07/17 12:56:14;;;;;;;4.30;2.17;;;;;;;;;;5060534;27;20047;-77
2023/07/17 12:58:40;;;;;;;5.28;2.28;;;;;;;;;;5078236;27;20517;-77
2023/07/17 13:01:07;;;;;;;6.13;2.38;;;;;;;;;;5111703;27;20718;-78
2023/07/17 13:03:33;;;;;;;7.53;2.80;;;;;;;;;;5091142;27;20271;-78
2023/07/17 13:05:59;;;;;;;4.82;2.28;;;;;;;;;;5109686;27;20035;-78
2023/07/17 13:08:25;;;;;;;7.88;2.40;;;;;;;;;;5092400;27;20035;-78
2023/07/17 13:10:51;;;;;;;7.57;2.63;;;;;;;;;;5088603;28;20103;-79
2023/07/17 13:13:17;;;;;;;5.43;2.08;;;;;;;;;;5073877;27;20127;-78
2023/07/17 13:15:44;;;;;;;3.53;2.00;;;;;;;;;;5111007;27;20039;-79
2023/07/17 13:18:10;;;;;;;4.05;1.80;;;;;;;;;;5107075;27;20254;-78
2023/07/17 13:20:36;;;;;;;12.35;7.50;;;;;;;;;;5090168;27;20039;-78
2023/07/17 13:23:02;;;;;;;43.92;22.75;;;;;;;;;;5077086;28;20425;-78
2023/07/17 13:25:28;;;;;;;7.97;2.95;;;;;;;;;;5090479;28;20043;-79
2023/07/17 13:27:54;;;;;;;12.95;6.78;;;;;;;;;;5089381;28;20510;-79
2023/07/17 13:30:20;;;;;;;8.73;4.55;;;;;;;;;;5083729;27;20077;-78
2023/07/17 13:32:46;;;;;;;25.65;9.93;;;;;;;;;;5070826;28;20124;-79
2023/07/17 13:35:12;;;;;;;5.18;2.30;;;;;;;;;;5064894;27;20043;-79
2023/07/17 13:37:38;;;;;;;7.55;2.50;;;;;;;;;;5073757;28;20571;-78
2023/07/17 13:40:05;;;;;;;36.50;21.67;;;;;;;;;;5062952;27;20563;-78
2023/07/17 13:42:31;;;;;;;4.18;2.83;;;;;;;;;;5083775;27;20100;-79
2023/07/17 13:44:59;;;;;;;4.63;2.10;;;;;;;;;;5084804;27;20352;-80
2023/07/17 13:47:26;;;;;;;5.68;1.85;;;;;;;;;;5080299;27;20101;-80
2023/07/17 13:49:52;;;;;;;6.20;3.60;;;;;;;;;;5100926;27;20039;-79
2023/07/17 13:52:18;;;;;;;8.27;2.20;;;;;;;;;;5086193;27;20051;-81
2023/07/17 13:54:44;;;;;;;4.15;2.30;;;;;;;;;;5085178;27;20515;-80
2023/07/17 13:57:11;;;;;;;16.48;5.70;;;;;;;;;;5086048;27;20155;-81
2023/07/17 13:59:37;;;;;;;4.40;2.13;;;;;;;;;;5090606;27;20046;-80
2023/07/17 14:02:03;;;;;;;5.10;2.25;;;;;;;;;;5106531;27;20389;-80
2023/07/17 14:04:29;;;;;;;5.28;2.28;;;;;;;;;;5085030;27;20112;-80
2023/07/17 14:06:55;;;;;;;5.65;2.60;;;;;;;;;;5072986;27;20521;-80
2023/07/17 14:09:22;;;;;;;5.15;2.30;;;;;;;;;;5105607;27;20078;-80
2023/07/17 14:11:48;;;;;;;23.45;5.22;;;;;;;;;;5087633;27;20054;-80
2023/07/17 14:14:14;;;;;;;10.32;2.67;;;;;;;;;;5086148;27;20482;-80
2023/07/17 14:16:40;;;;;;;5.88;2.90;;;;;;;;;;5089816;27;20117;-80
2023/07/17 14:19:07;;;;;;;8.07;4.13;;;;;;;;;;5090391;27;20043;-80
2023/07/17 14:21:33;;;;;;;6.03;2.85;;;;;;;;;;5075185;27;20345;-80
2023/07/17 14:23:59;;;;;;;8.98;3.25;;;;;;;;;;5066303;27;20116;-80
2023/07/17 14:26:25;;;;;;;4.25;2.83;;;;;;;;;;5085082;27;20052;-79
2023/07/17 14:28:51;;;;;;;6.07;2.53;;;;;;;;;;5105079;27;20051;-79
2023/07/17 14:31:17;;;;;;;4.45;2.00;;;;;;;;;;5070459;27;20078;-80
2023/07/17 14:33:45;;;;;;;4.72;2.00;;;;;;;;;;5086899;27;20050;-79